createdAt,value
2018-11-27T00:01:24.207Z,2.60
2018-11-27T00:03:59.295Z,2.70
2018-11-27T00:06:34.168Z,2.60
2018-11-27T00:09:08.786Z,2.60
2018-11-27T00:11:43.663Z,2.30
2018-11-27T00:14:18.652Z,2.60
2018-11-27T00:16:53.526Z,2.60
2018-11-27T00:19:28.100Z,2.60
2018-11-27T00:22:02.930Z,2.60
2018-11-27T00:24:37.544Z,2.60
2018-11-27T00:27:12.283Z,2.60
2018-11-27T00:29:46.912Z,2.60
2018-11-27T00:32:21.581Z,2.80
2018-11-27T00:34:56.242Z,2.60
2018-11-27T00:37:30.647Z,2.60
2018-11-27T00:40:09.879Z,2.60
2018-11-27T00:42:44.142Z,2.60
2018-11-27T00:45:20.022Z,2.60
2018-11-27T00:47:55.173Z,2.60
2018-11-27T00:50:29.641Z,2.60
2018-11-27T00:53:04.519Z,2.60
2018-11-27T00:55:39.519Z,2.60
2018-11-27T00:58:13.856Z,2.70
2018-11-27T01:00:48.069Z,2.60
2018-11-27T01:03:22.593Z,2.60
2018-11-27T01:05:56.832Z,2.70
2018-11-27T01:08:31.136Z,2.70
2018-11-27T01:11:06.272Z,2.60
2018-11-27T01:13:41.284Z,2.70
2018-11-27T01:16:15.559Z,2.60
2018-11-27T01:18:50.055Z,2.60
2018-11-27T01:21:24.131Z,2.60
2018-11-27T01:23:58.424Z,2.60
2018-11-27T01:26:33.263Z,2.60
2018-11-27T01:29:08.015Z,2.70
2018-11-27T01:31:42.791Z,2.60
2018-11-27T01:34:17.315Z,2.60
2018-11-27T01:36:51.947Z,2.70
2018-11-27T01:39:26.523Z,2.40
2018-11-27T01:42:01.120Z,2.60
2018-11-27T01:44:35.991Z,2.60
2018-11-27T01:47:10.672Z,2.60
2018-11-27T01:49:45.496Z,2.60
2018-11-27T01:52:20.155Z,2.60
2018-11-27T01:54:54.619Z,2.70
2018-11-27T01:57:29.290Z,2.60
2018-11-27T02:00:16.772Z,2.60
2018-11-27T02:02:52.090Z,2.60
2018-11-27T02:05:26.939Z,2.60
2018-11-27T02:08:01.470Z,2.60
2018-11-27T02:10:36.075Z,2.30
2018-11-27T02:13:10.859Z,2.70
2018-11-27T02:15:45.370Z,2.80
2018-11-27T02:18:20.530Z,2.60
2018-11-27T02:20:55.410Z,2.70
2018-11-27T02:23:30.276Z,2.70
2018-11-27T02:26:04.763Z,2.70
2018-11-27T02:28:39.442Z,2.60
2018-11-27T02:31:13.666Z,2.80
2018-11-27T02:33:47.963Z,2.60
2018-11-27T02:36:22.207Z,2.60
2018-11-27T02:38:57.264Z,2.60
2018-11-27T02:41:31.813Z,2.60
2018-11-27T02:44:06.506Z,2.60
2018-11-27T02:46:41.051Z,2.60
2018-11-27T02:49:15.659Z,2.80
2018-11-27T02:51:50.300Z,2.70
2018-11-27T02:54:25.527Z,2.60
2018-11-27T02:56:59.640Z,2.60
2018-11-27T02:59:34.524Z,2.60
2018-11-27T03:02:09.065Z,2.60
2018-11-27T03:04:44.048Z,2.60
2018-11-27T03:07:18.183Z,2.60
2018-11-27T03:09:52.924Z,2.80
2018-11-27T03:12:27.765Z,2.60
2018-11-27T03:15:02.388Z,2.60
2018-11-27T03:17:36.843Z,2.60
2018-11-27T03:20:13.044Z,2.70
2018-11-27T03:22:48.009Z,2.80
2018-11-27T03:25:22.734Z,2.60
2018-11-27T03:27:57.383Z,2.60
2018-11-27T03:30:31.652Z,2.60
2018-11-27T03:33:05.848Z,2.60
2018-11-27T03:35:40.057Z,2.60
2018-11-27T03:38:14.195Z,2.70
2018-11-27T03:40:48.344Z,2.60
2018-11-27T03:43:22.548Z,2.50
2018-11-27T03:45:57.560Z,2.60
2018-11-27T03:48:31.653Z,2.60
2018-11-27T03:51:06.587Z,2.60
2018-11-27T03:53:41.100Z,2.60
2018-11-27T03:56:15.793Z,2.40
2018-11-27T03:58:50.345Z,2.60
2018-11-27T04:01:25.083Z,2.60
2018-11-27T04:03:59.488Z,2.50
2018-11-27T04:06:34.192Z,2.50
2018-11-27T04:09:09.934Z,2.50
2018-11-27T04:11:44.640Z,2.60
2018-11-27T04:14:19.230Z,2.40
2018-11-27T04:16:54.255Z,2.50
2018-11-27T04:19:28.712Z,2.50
2018-11-27T04:22:03.307Z,2.50
2018-11-27T04:24:38.150Z,2.50
2018-11-27T04:27:13.148Z,2.50
2018-11-27T04:29:47.492Z,2.60
2018-11-27T04:32:21.733Z,2.50
2018-11-27T04:34:55.875Z,2.50
2018-11-27T04:37:30.538Z,2.50
2018-11-27T04:40:07.443Z,2.50
2018-11-27T04:42:42.059Z,2.50
2018-11-27T04:45:17.801Z,2.50
2018-11-27T04:47:52.349Z,2.60
2018-11-27T04:50:26.542Z,2.50
2018-11-27T04:53:01.645Z,2.50
2018-11-27T04:55:36.015Z,2.50
2018-11-27T04:58:10.472Z,2.50
2018-11-27T05:00:45.485Z,2.50
2018-11-27T05:03:20.196Z,2.40
2018-11-27T05:05:54.908Z,2.40
2018-11-27T05:08:29.794Z,2.40
2018-11-27T05:11:04.407Z,2.70
2018-11-27T05:13:39.067Z,2.60
2018-11-27T05:16:13.555Z,2.50
2018-11-27T05:18:48.097Z,2.50
2018-11-27T05:21:22.863Z,2.50
2018-11-27T05:23:57.815Z,2.50
2018-11-27T05:26:32.411Z,2.50
2018-11-27T05:29:07.145Z,2.50
2018-11-27T05:31:41.547Z,2.50
2018-11-27T05:34:16.211Z,2.60
2018-11-27T05:36:51.192Z,2.50
2018-11-27T05:39:25.617Z,2.50
2018-11-27T05:42:00.699Z,2.70
2018-11-27T05:44:35.438Z,2.50
2018-11-27T05:47:10.113Z,2.60
2018-11-27T05:49:44.552Z,2.50
2018-11-27T05:52:19.207Z,2.70
2018-11-27T05:54:53.695Z,2.70
2018-11-27T05:57:28.412Z,2.70
2018-11-27T06:00:05.663Z,2.70
2018-11-27T06:02:40.226Z,2.70
2018-11-27T06:05:17.119Z,2.90
2018-11-27T06:07:52.136Z,2.60
2018-11-27T06:10:26.877Z,2.60
2018-11-27T06:13:01.543Z,2.60
2018-11-27T06:15:36.323Z,2.70
2018-11-27T06:18:10.866Z,2.60
2018-11-27T06:20:45.467Z,2.60
2018-11-27T06:23:20.090Z,2.60
2018-11-27T06:25:54.489Z,2.60
2018-11-27T06:28:29.269Z,2.60
2018-11-27T06:31:04.584Z,2.60
2018-11-27T06:33:38.801Z,2.80
2018-11-27T06:36:13.484Z,2.80
2018-11-27T06:38:48.314Z,2.60
2018-11-27T06:41:22.668Z,2.50
2018-11-27T06:43:57.452Z,2.70
2018-11-27T06:46:32.056Z,2.60
2018-11-27T06:49:06.794Z,2.60
2018-11-27T06:51:41.559Z,2.60
2018-11-27T06:54:16.047Z,2.70
2018-11-27T06:56:50.788Z,2.60
2018-11-27T06:59:25.358Z,2.60
2018-11-27T07:01:59.887Z,2.60
2018-11-27T07:04:34.556Z,2.60
2018-11-27T07:07:09.364Z,2.60
2018-11-27T07:09:44.010Z,2.60
2018-11-27T07:12:24.412Z,2.60
2018-11-27T07:14:59.528Z,2.60
2018-11-27T07:17:34.168Z,2.60
2018-11-27T07:20:10.975Z,2.80
2018-11-27T07:22:45.567Z,2.70
2018-11-27T07:25:20.190Z,2.60
2018-11-27T07:27:54.767Z,2.70
2018-11-27T07:30:29.816Z,2.80
2018-11-27T07:33:05.531Z,2.60
2018-11-27T07:35:40.148Z,2.70
2018-11-27T07:38:14.592Z,2.80
2018-11-27T07:40:49.175Z,2.90
2018-11-27T07:43:23.765Z,2.60
2018-11-27T07:45:58.558Z,2.60
2018-11-27T07:48:33.215Z,2.60
2018-11-27T07:51:07.616Z,2.90
2018-11-27T07:53:42.176Z,2.70
2018-11-27T07:56:16.895Z,2.70
2018-11-27T07:58:51.451Z,2.90
2018-11-27T08:01:26.111Z,2.80
2018-11-27T08:04:00.791Z,2.80
2018-11-27T08:06:35.438Z,2.80
2018-11-27T08:09:10.259Z,2.80
2018-11-27T08:11:45.224Z,2.80
2018-11-27T08:14:19.751Z,2.80
2018-11-27T08:16:54.703Z,2.90
2018-11-27T08:19:29.331Z,2.90
2018-11-27T08:22:04.895Z,3.00
2018-11-27T08:24:39.720Z,2.90
2018-11-27T08:27:14.376Z,3.10
2018-11-27T08:29:48.932Z,2.90
2018-11-27T08:32:23.754Z,2.90
2018-11-27T08:34:58.532Z,2.90
2018-11-27T08:37:32.976Z,2.90
2018-11-27T08:40:12.320Z,2.90
2018-11-27T08:42:47.331Z,2.90
2018-11-27T08:45:23.330Z,3.00
2018-11-27T08:47:57.603Z,3.00
2018-11-27T08:50:32.444Z,3.00
2018-11-27T08:53:07.272Z,3.00
2018-11-27T08:55:42.980Z,3.10
2018-11-27T08:58:20.664Z,3.00
2018-11-27T09:00:55.596Z,3.10
2018-11-27T09:03:30.204Z,3.10
2018-11-27T09:06:05.581Z,3.10
2018-11-27T09:08:40.479Z,3.10
2018-11-27T09:11:15.152Z,3.10
2018-11-27T09:13:49.847Z,3.10
2018-11-27T09:16:24.551Z,3.10
2018-11-27T09:18:58.971Z,3.20
2018-11-27T09:21:34.604Z,3.20
2018-11-27T09:24:09.340Z,3.20
2018-11-27T09:26:44.235Z,3.20
2018-11-27T09:29:19.408Z,3.20
2018-11-27T09:31:53.486Z,3.20
2018-11-27T09:34:28.542Z,3.20
2018-11-27T09:37:02.766Z,3.20
2018-11-27T09:39:37.495Z,3.30
2018-11-27T09:42:12.267Z,3.30
2018-11-27T09:44:47.038Z,3.30
2018-11-27T09:47:21.813Z,3.40
2018-11-27T09:49:56.556Z,3.30
2018-11-27T09:52:31.111Z,3.40
2018-11-27T09:55:11.619Z,3.40
2018-11-27T09:57:46.505Z,3.40
2018-11-27T10:00:29.899Z,3.40
2018-11-27T10:03:08.070Z,3.50
2018-11-27T10:05:42.916Z,3.50
2018-11-27T10:08:17.567Z,3.50
2018-11-27T10:10:52.403Z,3.50
2018-11-27T10:13:27.364Z,3.60
2018-11-27T10:16:02.291Z,3.60
2018-11-27T10:18:36.359Z,3.70
2018-11-27T10:21:11.450Z,3.70
2018-11-27T10:23:45.545Z,3.70
2018-11-27T10:26:20.576Z,3.80
2018-11-27T10:28:54.818Z,3.80
2018-11-27T10:31:29.408Z,3.80
2018-11-27T10:34:04.570Z,3.80
2018-11-27T10:36:38.888Z,3.90
2018-11-27T10:39:13.568Z,3.90
2018-11-27T10:41:48.143Z,3.90
2018-11-27T10:44:23.022Z,3.90
2018-11-27T10:46:57.814Z,3.90
2018-11-27T10:49:32.470Z,3.90
2018-11-27T10:52:07.403Z,4.00
2018-11-27T10:54:41.959Z,4.00
2018-11-27T10:57:16.536Z,4.00
2018-11-27T10:59:51.323Z,4.00
2018-11-27T11:02:31.997Z,4.00
2018-11-27T11:05:07.012Z,4.00
2018-11-27T11:07:41.497Z,4.10
2018-11-27T11:10:16.196Z,4.10
2018-11-27T11:12:51.175Z,4.10
2018-11-27T11:15:25.431Z,4.10
2018-11-27T11:17:59.995Z,4.10
2018-11-27T11:20:34.618Z,4.20
2018-11-27T11:23:09.101Z,4.10
2018-11-27T11:25:44.608Z,4.10
2018-11-27T11:28:20.757Z,4.10
2018-11-27T11:30:55.235Z,4.10
2018-11-27T11:33:29.839Z,4.10
2018-11-27T11:36:04.847Z,4.00
2018-11-27T11:38:39.203Z,4.00
2018-11-27T11:41:13.861Z,4.00
2018-11-27T11:43:48.221Z,4.00
2018-11-27T11:46:24.323Z,4.10
2018-11-27T11:49:01.895Z,4.10
2018-11-27T11:51:33.313Z,4.10
2018-11-27T11:54:07.855Z,4.10
2018-11-27T11:56:42.570Z,4.10
2018-11-27T11:59:17.097Z,4.10
2018-11-27T12:01:52.164Z,4.10
2018-11-27T12:04:26.645Z,4.10
2018-11-27T12:07:01.323Z,4.10
2018-11-27T12:09:35.794Z,4.10
2018-11-27T12:12:10.351Z,4.10
2018-11-27T12:14:44.982Z,4.10
2018-11-27T12:17:19.667Z,4.10
2018-11-27T12:19:54.479Z,4.10
2018-11-27T12:22:29.069Z,4.10
2018-11-27T12:25:05.327Z,4.10
2018-11-27T12:27:40.472Z,4.10
2018-11-27T12:30:17.028Z,4.10
2018-11-27T12:32:52.375Z,4.20
2018-11-27T12:35:26.787Z,4.20
2018-11-27T12:38:01.485Z,4.20
2018-11-27T12:40:36.094Z,4.20
2018-11-27T12:43:10.758Z,4.20
2018-11-27T12:45:45.745Z,4.20
2018-11-27T12:48:19.943Z,4.30
2018-11-27T12:50:54.567Z,4.30
2018-11-27T12:53:29.221Z,4.30
2018-11-27T12:56:04.037Z,4.30
2018-11-27T12:58:38.442Z,4.40
2018-11-27T13:01:12.774Z,4.30
2018-11-27T13:03:47.344Z,4.30
2018-11-27T13:06:22.068Z,4.30
2018-11-27T13:08:57.096Z,4.30
2018-11-27T13:11:31.412Z,4.30
2018-11-27T13:14:06.687Z,4.20
2018-11-27T13:16:41.770Z,4.20
2018-11-27T13:19:16.296Z,4.20
2018-11-27T13:21:50.799Z,4.20
2018-11-27T13:24:26.152Z,4.20
2018-11-27T13:27:00.716Z,4.20
2018-11-27T13:29:35.667Z,4.10
2018-11-27T13:32:09.991Z,4.10
2018-11-27T13:34:50.251Z,4.20
2018-11-27T13:37:19.268Z,4.50
2018-11-27T13:39:53.871Z,5.00
2018-11-27T13:42:28.227Z,5.00
2018-11-27T13:45:03.203Z,4.80
2018-11-27T13:47:37.568Z,4.80
2018-11-27T13:50:18.716Z,4.60
2018-11-27T13:52:53.611Z,4.50
2018-11-27T13:55:28.361Z,4.50
2018-11-27T13:58:03.024Z,4.40
2018-11-27T14:00:37.619Z,4.30
2018-11-27T14:03:12.306Z,4.30
2018-11-27T14:05:47.103Z,4.30
2018-11-27T14:08:21.837Z,4.20
2018-11-27T14:10:56.841Z,4.20
2018-11-27T14:13:31.173Z,4.20
2018-11-27T14:16:06.383Z,4.20
2018-11-27T14:18:40.803Z,4.10
2018-11-27T14:21:15.612Z,4.20
2018-11-27T14:23:50.406Z,4.30
2018-11-27T14:26:25.294Z,4.10
2018-11-27T14:28:59.888Z,4.10
2018-11-27T14:31:34.671Z,4.10
2018-11-27T14:34:09.339Z,4.00
2018-11-27T14:36:44.488Z,4.10
2018-11-27T14:39:19.283Z,4.10
2018-11-27T14:41:53.934Z,4.00
2018-11-27T14:44:28.560Z,4.00
2018-11-27T14:47:03.314Z,3.90
2018-11-27T14:49:38.456Z,3.90
2018-11-27T14:52:13.657Z,3.90
2018-11-27T14:54:48.498Z,3.80
2018-11-27T14:57:23.226Z,3.80
2018-11-27T14:59:57.596Z,3.80
2018-11-27T15:02:32.164Z,3.80
2018-11-27T15:05:13.343Z,3.80
2018-11-27T15:07:49.287Z,3.70
2018-11-27T15:10:23.690Z,3.80
2018-11-27T15:12:58.375Z,3.80
2018-11-27T15:15:32.996Z,3.80
2018-11-27T15:18:07.957Z,3.80
2018-11-27T15:20:42.304Z,3.70
2018-11-27T15:23:17.232Z,3.70
2018-11-27T15:25:51.437Z,3.70
2018-11-27T15:28:26.071Z,3.70
2018-11-27T15:31:00.674Z,3.60
2018-11-27T15:33:35.115Z,3.70
2018-11-27T15:36:09.863Z,3.60
2018-11-27T15:38:44.648Z,3.60
2018-11-27T15:41:19.120Z,3.60
2018-11-27T15:43:53.716Z,3.60
2018-11-27T15:46:28.518Z,3.60
2018-11-27T15:49:06.200Z,3.60
2018-11-27T15:51:40.863Z,3.70
2018-11-27T15:54:15.886Z,3.60
2018-11-27T15:56:50.589Z,3.60
2018-11-27T15:59:25.012Z,3.60
2018-11-27T16:01:59.762Z,3.60
2018-11-27T16:04:34.608Z,3.60
2018-11-27T16:07:09.107Z,3.60
2018-11-27T16:09:44.673Z,3.60
2018-11-27T16:12:19.066Z,3.60
2018-11-27T16:14:53.656Z,3.60
2018-11-27T16:17:28.230Z,3.60
2018-11-27T16:20:02.974Z,3.60
2018-11-27T16:22:37.464Z,3.60
2018-11-27T16:25:17.272Z,3.60
2018-11-27T16:27:51.956Z,3.60
2018-11-27T16:30:28.296Z,3.60
2018-11-27T16:33:02.891Z,3.60
2018-11-27T16:35:37.320Z,3.60
2018-11-27T16:38:11.928Z,3.60
2018-11-27T16:40:46.866Z,3.60
2018-11-27T16:43:21.379Z,3.60
2018-11-27T16:45:55.944Z,3.60
2018-11-27T16:48:30.698Z,3.60
2018-11-27T16:51:05.468Z,3.60
2018-11-27T16:53:40.055Z,3.50
2018-11-27T16:56:14.710Z,3.50
2018-11-27T16:58:49.189Z,3.60
2018-11-27T17:01:23.804Z,3.50
2018-11-27T17:03:58.299Z,3.50
2018-11-27T17:06:32.570Z,3.50
2018-11-27T17:09:13.612Z,3.50
2018-11-27T17:11:47.973Z,3.50
2018-11-27T17:14:22.937Z,3.50
2018-11-27T17:16:57.711Z,3.50
2018-11-27T17:19:32.501Z,3.50
2018-11-27T17:22:07.532Z,3.50
2018-11-27T17:24:41.908Z,3.50
2018-11-27T17:27:16.575Z,3.50
2018-11-27T17:29:51.333Z,3.50
2018-11-27T17:32:25.940Z,3.50
2018-11-27T17:35:00.746Z,3.50
2018-11-27T17:37:35.678Z,3.50
2018-11-27T17:40:11.868Z,3.50
2018-11-27T17:42:46.500Z,3.50
2018-11-27T17:45:21.372Z,3.50
2018-11-27T17:47:55.537Z,3.50
2018-11-27T17:50:30.272Z,3.50
2018-11-27T17:53:05.641Z,3.50
2018-11-27T17:55:40.991Z,3.50
2018-11-27T17:58:15.396Z,3.50
2018-11-27T18:00:50.403Z,3.50
2018-11-27T18:03:24.895Z,3.50
2018-11-27T18:05:59.703Z,3.60
2018-11-27T18:08:34.417Z,3.50
2018-11-27T18:11:09.133Z,3.50
2018-11-27T18:13:44.814Z,3.50
2018-11-27T18:16:19.579Z,3.50
2018-11-27T18:18:54.260Z,3.50
2018-11-27T18:21:28.896Z,3.50
2018-11-27T18:24:04.575Z,3.50
2018-11-27T18:26:38.982Z,3.50
2018-11-27T18:29:13.559Z,3.50
2018-11-27T18:31:48.375Z,3.50
2018-11-27T18:34:22.841Z,3.60
2018-11-27T18:36:57.789Z,3.60
2018-11-27T18:39:32.820Z,3.60
2018-11-27T18:42:07.123Z,3.60
2018-11-27T18:44:41.642Z,3.60
2018-11-27T18:47:17.123Z,3.60
2018-11-27T18:49:51.902Z,3.60
2018-11-27T18:52:26.819Z,3.50
2018-11-27T18:55:00.983Z,3.50
2018-11-27T18:57:35.916Z,3.60
2018-11-27T19:00:15.299Z,3.60
2018-11-27T19:02:49.942Z,3.60
2018-11-27T19:05:24.613Z,3.60
2018-11-27T19:07:59.247Z,3.60
2018-11-27T19:10:34.126Z,3.60
2018-11-27T19:13:08.824Z,3.60
2018-11-27T19:15:45.511Z,3.60
2018-11-27T19:18:22.794Z,3.60
2018-11-27T19:20:57.716Z,3.60
2018-11-27T19:23:32.192Z,3.60
2018-11-27T19:26:06.912Z,3.60
2018-11-27T19:28:41.972Z,3.60
2018-11-27T19:31:16.226Z,3.60
2018-11-27T19:33:51.695Z,3.60
2018-11-27T19:36:25.925Z,3.60
2018-11-27T19:39:01.203Z,3.60
2018-11-27T19:41:37.288Z,3.60
2018-11-27T19:44:13.647Z,3.60
2018-11-27T19:46:50.073Z,3.60
2018-11-27T19:49:26.085Z,3.60
2018-11-27T19:52:02.564Z,3.60
2018-11-27T19:54:38.571Z,3.60
2018-11-27T19:57:15.566Z,3.70
2018-11-27T19:59:52.177Z,3.60
2018-11-27T20:02:28.742Z,3.60
2018-11-27T20:05:05.816Z,3.60
2018-11-27T20:07:43.615Z,3.60
2018-11-27T20:10:20.546Z,3.60
2018-11-27T20:12:58.335Z,3.60
2018-11-27T20:15:35.945Z,3.60
2018-11-27T20:18:13.808Z,3.60
2018-11-27T20:20:51.088Z,3.60
2018-11-27T20:23:28.870Z,3.60
2018-11-27T20:26:06.531Z,3.60
2018-11-27T20:28:44.093Z,3.60
2018-11-27T20:31:21.864Z,3.60
2018-11-27T20:33:59.718Z,3.60
2018-11-27T20:36:37.298Z,3.60
2018-11-27T20:39:15.395Z,3.60
2018-11-27T20:41:52.546Z,3.60
2018-11-27T20:44:30.337Z,3.60
2018-11-27T20:47:07.982Z,3.60
2018-11-27T20:49:45.680Z,3.60
2018-11-27T20:52:23.218Z,3.60
2018-11-27T20:55:00.916Z,3.60
2018-11-27T20:57:38.466Z,3.50
2018-11-27T21:00:21.432Z,3.50
2018-11-27T21:03:00.973Z,3.50
2018-11-27T21:05:37.782Z,3.50
2018-11-27T21:08:14.328Z,3.50
2018-11-27T21:10:51.019Z,3.50
2018-11-27T21:13:27.150Z,3.50
2018-11-27T21:16:03.697Z,3.50
2018-11-27T21:18:38.894Z,3.50
2018-11-27T21:21:14.331Z,3.50
2018-11-27T21:23:48.729Z,3.50
2018-11-27T21:26:23.730Z,3.50
2018-11-27T21:28:58.947Z,3.50
2018-11-27T21:31:33.941Z,3.50
2018-11-27T21:34:08.770Z,3.50
2018-11-27T21:36:43.795Z,3.50
2018-11-27T21:39:18.467Z,3.50
2018-11-27T21:41:53.170Z,3.50
2018-11-27T21:44:27.831Z,3.50
2018-11-27T21:47:02.630Z,3.50
2018-11-27T21:49:37.232Z,3.50
2018-11-27T21:52:12.275Z,3.50
2018-11-27T21:54:46.814Z,3.50
2018-11-27T21:57:23.226Z,3.60
2018-11-27T21:59:57.584Z,3.60
2018-11-27T22:02:32.203Z,3.60
2018-11-27T22:05:08.815Z,3.60
2018-11-27T22:07:43.886Z,3.60
2018-11-27T22:10:20.899Z,3.60
2018-11-27T22:12:57.071Z,3.60
2018-11-27T22:15:36.209Z,3.60
2018-11-27T22:18:12.467Z,3.60
2018-11-27T22:20:47.501Z,3.60
2018-11-27T22:23:22.103Z,3.60
2018-11-27T22:25:56.892Z,3.60
2018-11-27T22:28:32.414Z,3.60
2018-11-27T22:31:07.441Z,3.60
2018-11-27T22:33:41.744Z,3.60
2018-11-27T22:36:16.318Z,3.60
2018-11-27T22:38:50.956Z,3.60
2018-11-27T22:41:25.439Z,3.60
2018-11-27T22:44:00.011Z,3.60
2018-11-27T22:46:34.969Z,3.60
2018-11-27T22:49:09.473Z,3.60
2018-11-27T22:51:44.050Z,3.60
2018-11-27T22:54:18.741Z,3.60
2018-11-27T22:56:53.600Z,3.60
2018-11-27T22:59:28.259Z,3.60
2018-11-27T23:02:03.279Z,3.50
2018-11-27T23:04:38.164Z,3.50
2018-11-27T23:07:17.152Z,3.50
2018-11-27T23:09:52.526Z,3.50
2018-11-27T23:12:26.906Z,3.40
2018-11-27T23:15:01.429Z,3.40
2018-11-27T23:17:36.168Z,3.40
2018-11-27T23:20:15.027Z,3.30
2018-11-27T23:22:49.484Z,3.40
2018-11-27T23:25:24.139Z,3.30
2018-11-27T23:27:58.673Z,3.30
2018-11-27T23:30:33.425Z,3.20
2018-11-27T23:33:07.886Z,3.30
2018-11-27T23:35:42.532Z,3.40
2018-11-27T23:38:17.244Z,3.30
2018-11-27T23:40:51.940Z,3.30
2018-11-27T23:43:26.507Z,3.20
2018-11-27T23:46:01.171Z,3.30
2018-11-27T23:48:35.834Z,3.30
2018-11-27T23:51:10.539Z,3.10
2018-11-27T23:53:45.004Z,3.30
2018-11-27T23:56:19.867Z,3.20
2018-11-27T23:58:54.580Z,3.20
